Time;durP1;ratioP1;P1;durP2;ratioP2;P2;SDS_P1;SDS_P2;PMS_P1;PMS_P2;Temp;Humidity;BMP_temperature;BMP_pressure;BME280_temperature;BME280_humidity;BME280_pressure;Samples;Min_cycle;Max_cycle;Signal;HPM_P1;HPM_P2
2022/03/30 00:02:45;;;;;;;3.85;3.20;;;;;;;20.05;41.72;95824.47;10292836;28;20051;-57
2022/03/30 00:08:05;;;;;;;4.10;3.15;;;;;;;20.02;41.71;95823.25;10292249;28;21889;-57
2022/03/30 00:13:25;;;;;;;3.90;3.50;;;;;;;20.02;41.85;95817.06;10303252;28;20050;-58
2022/03/30 00:18:45;;;;;;;4.28;3.55;;;;;;;20.02;41.89;95828.66;10293745;28;20070;-58
2022/03/30 00:24:05;;;;;;;3.33;3.03;;;;;;;20.01;41.92;95820.91;10286940;28;20386;-57
2022/03/30 00:29:24;;;;;;;4.30;3.47;;;;;;;19.99;41.89;95805.03;10289647;28;20521;-58
2022/03/30 00:34:44;;;;;;;3.42;3.13;;;;;;;19.99;42.01;95802.31;10292335;28;20055;-57
2022/03/30 00:40:06;;;;;;;4.28;3.45;;;;;;;19.98;41.79;95803.47;10291159;28;20055;-58
2022/03/30 00:45:25;;;;;;;4.10;3.20;;;;;;;19.98;41.91;95797.28;10290803;28;20062;-58
2022/03/30 00:50:45;;;;;;;3.40;3.10;;;;;;;19.95;41.88;95802.25;10289706;28;20058;-57
2022/03/30 00:56:05;;;;;;;3.45;3.15;;;;;;;19.95;41.83;95796.06;10288733;28;20054;-58
2022/03/30 01:01:25;;;;;;;3.70;3.30;;;;;;;19.93;41.91;95796.44;10288426;28;20066;-58
2022/03/30 01:06:45;;;;;;;4.60;3.42;;;;;;;19.91;41.98;95785.16;10281820;28;20417;-58
2022/03/30 01:12:05;;;;;;;3.78;3.40;;;;;;;19.91;41.90;95777.03;10272398;28;20061;-58
2022/03/30 01:17:25;;;;;;;3.50;3.20;;;;;;;19.90;41.94;95775.50;10270926;28;20144;-57
2022/03/30 01:22:45;;;;;;;3.53;3.20;;;;;;;19.90;41.88;95767.38;10273866;28;20117;-58
2022/03/30 01:28:04;;;;;;;3.45;3.00;;;;;;;19.88;41.96;95764.25;10287668;28;20059;-57
2022/03/30 01:33:25;;;;;;;3.50;3.20;;;;;;;19.87;41.89;95749.16;10287997;28;20422;-58
2022/03/30 01:38:45;;;;;;;3.60;3.30;;;;;;;19.87;41.81;95749.16;10285574;28;20054;-58
2022/03/30 01:44:04;;;;;;;3.83;3.38;;;;;;;19.86;41.91;95746.81;10297162;28;20045;-58
2022/03/30 01:49:24;;;;;;;4.20;3.55;;;;;;;19.85;41.96;95723.63;10290558;28;20051;-57
2022/03/30 01:54:44;;;;;;;3.97;3.30;;;;;;;19.82;41.98;95714.31;10289396;28;20062;-58
2022/03/30 02:00:04;;;;;;;4.10;3.15;;;;;;;19.83;42.00;95723.19;10279366;28;20046;-57
2022/03/30 02:05:31;;;;;;;3.60;3.22;;;;;;;19.82;41.92;95718.94;10286575;28;20084;-57
2022/03/30 02:10:50;;;;;;;3.88;3.35;;;;;;;19.81;41.76;95712.72;10286655;28;20055;-56
2022/03/30 02:16:10;;;;;;;3.40;3.10;;;;;;;19.79;41.84;95708.81;10281522;28;20049;-57
2022/03/30 02:21:30;;;;;;;3.70;3.17;;;;;;;19.78;41.81;95705.34;10279539;28;20066;-57
2022/03/30 02:26:50;;;;;;;3.03;2.83;;;;;;;19.77;41.88;95702.97;10283449;28;20050;-57
2022/03/30 02:32:10;;;;;;;3.75;3.45;;;;;;;19.76;41.83;95702.19;10286394;28;20058;-58
2022/03/30 02:37:29;;;;;;;3.42;3.13;;;;;;;19.76;41.84;95699.50;10284775;28;20482;-57
2022/03/30 02:42:49;;;;;;;3.42;3.13;;;;;;;19.74;41.62;95690.97;10285402;28;20055;-58
2022/03/30 02:48:18;;;;;;;3.45;3.13;;;;;;;19.73;41.78;95683.97;10306529;28;20046;-57
2022/03/30 02:53:38;;;;;;;3.38;3.08;;;;;;;19.72;41.76;95672.41;10285292;28;20105;-57
2022/03/30 02:58:57;;;;;;;3.70;3.30;;;;;;;19.70;41.77;95665.75;10295867;28;20054;-58
2022/03/30 03:04:16;;;;;;;4.05;3.38;;;;;;;19.69;41.65;95667.66;10279017;28;20068;-57
2022/03/30 03:09:36;;;;;;;3.33;3.03;;;;;;;19.69;41.67;95664.19;10288822;28;20077;-58
2022/03/30 03:14:55;;;;;;;3.40;3.10;;;;;;;19.67;41.68;95659.13;10281532;28;20105;-58
2022/03/30 03:20:14;;;;;;;3.30;3.00;;;;;;;19.66;41.76;95659.47;10279717;28;20059;-58
2022/03/30 03:25:36;;;;;;;3.33;3.03;;;;;;;19.65;41.71;95652.50;10299393;28;20191;-57
2022/03/30 03:30:56;;;;;;;3.38;3.08;;;;;;;19.64;41.65;95656.31;10294583;28;20066;-58
2022/03/30 03:36:18;;;;;;;3.40;3.10;;;;;;;19.63;41.68;95642.03;10306345;28;20041;-57
2022/03/30 03:41:38;;;;;;;3.63;3.00;;;;;;;19.63;41.68;95641.28;10292015;28;20065;-58
2022/03/30 03:46:58;;;;;;;3.55;3.05;;;;;;;19.62;41.54;95639.69;10289841;28;20050;-58
2022/03/30 03:52:17;;;;;;;2.90;2.70;;;;;;;19.61;41.54;95638.13;10292954;28;20059;-56
2022/03/30 03:57:41;;;;;;;3.05;2.75;;;;;;;19.59;41.61;95624.97;10289905;28;20062;-56
2022/03/30 04:03:02;;;;;;;3.92;3.17;;;;;;;19.60;41.36;95629.25;10303812;28;20093;-57
2022/03/30 04:08:21;;;;;;;3.22;3.00;;;;;;;19.59;41.52;95621.50;10302987;28;20047;-56
2022/03/30 04:13:41;;;;;;;3.60;3.30;;;;;;;19.58;41.64;95618.00;10304499;28;20062;-58
2022/03/30 04:19:01;;;;;;;3.90;3.45;;;;;;;19.58;42.33;95611.81;10295539;28;20105;-58
2022/03/30 04:24:20;;;;;;;3.17;2.97;;;;;;;19.59;42.66;95610.69;10298212;28;20050;-58
2022/03/30 04:29:39;;;;;;;3.95;3.50;;;;;;;19.59;42.59;95613.41;10289483;28;20058;-58
2022/03/30 04:34:59;;;;;;;3.65;3.28;;;;;;;19.62;42.59;95604.56;10290724;28;20047;-58
2022/03/30 04:40:18;;;;;;;3.92;3.17;;;;;;;19.62;42.64;95601.88;10290925;28;20406;-58
2022/03/30 04:45:38;;;;;;;4.78;3.00;;;;;;;19.63;42.54;95598.81;10291609;28;20055;-57
2022/03/30 04:50:58;;;;;;;5.90;3.22;;;;;;;19.66;42.63;95600.03;10289925;28;20061;-56
2022/03/30 04:56:17;;;;;;;3.70;3.20;;;;;;;19.69;42.70;95607.44;10283989;28;20501;-58
2022/03/30 05:01:37;;;;;;;3.50;3.00;;;;;;;19.73;42.77;95609.09;10291742;28;20241;-58
2022/03/30 05:06:57;;;;;;;3.65;3.30;;;;;;;19.76;43.05;95602.22;10304707;28;20058;-59
2022/03/30 05:12:17;;;;;;;3.63;3.20;;;;;;;19.78;42.96;95604.53;10285763;28;20062;-56
2022/03/30 05:17:41;;;;;;;10.85;7.40;;;;;;;19.70;40.24;95603.59;10285923;28;20057;-56
2022/03/30 05:23:00;;;;;;;5.97;3.90;;;;;;;19.73;41.95;95602.91;10292143;28;20038;-57
2022/03/30 05:28:20;;;;;;;12.20;7.15;;;;;;;19.79;41.69;95606.91;10277761;28;20078;-55
2022/03/30 05:33:39;;;;;;;12.65;7.20;;;;;;;19.83;41.52;95596.94;10293911;28;20074;-56
2022/03/30 05:38:58;;;;;;;10.93;7.07;;;;;;;19.88;41.61;95604.00;10294226;28;20641;-57
2022/03/30 05:44:19;;;;;;;9.45;6.93;;;;;;;19.92;41.35;95605.63;10284042;28;20099;-56
2022/03/30 05:49:38;;;;;;;11.40;6.40;;;;;;;19.95;41.25;95606.84;10306546;28;20046;-57
2022/03/30 05:54:57;;;;;;;10.65;6.63;;;;;;;19.98;41.21;95603.44;10288988;28;20063;-56
2022/03/30 06:00:17;;;;;;;10.98;6.75;;;;;;;19.99;41.23;95609.63;10300048;28;20727;-57
2022/03/30 06:05:37;;;;;;;12.88;7.10;;;;;;;20.00;41.02;95603.84;10283705;28;20513;-57
2022/03/30 06:10:57;;;;;;;8.75;5.90;;;;;;;20.02;41.10;95601.59;10306207;28;20070;-56
2022/03/30 06:16:16;;;;;;;12.27;7.03;;;;;;;20.03;41.10;95597.75;10283650;28;20043;-57
2022/03/30 06:21:36;;;;;;;11.30;6.55;;;;;;;20.06;41.15;95604.34;10268288;28;20051;-57
2022/03/30 06:26:56;;;;;;;10.00;6.63;;;;;;;20.06;40.89;95601.66;10273898;28;20077;-56
2022/03/30 06:32:15;;;;;;;10.80;6.47;;;;;;;20.08;41.00;95604.78;10288415;28;20057;-57
2022/03/30 06:37:35;;;;;;;10.05;6.57;;;;;;;20.07;40.97;95595.91;10289099;28;20434;-56
2022/03/30 06:42:54;;;;;;;9.38;6.03;;;;;;;20.08;40.97;95597.44;10294025;28;20058;-56
2022/03/30 06:48:14;;;;;;;9.73;6.10;;;;;;;20.09;40.95;95595.53;10290126;28;20051;-56
2022/03/30 06:53:33;;;;;;;11.27;6.38;;;;;;;20.10;41.00;95595.16;10292288;28;20046;-57
2022/03/30 06:58:52;;;;;;;11.55;6.65;;;;;;;20.10;41.02;95589.00;10283062;28;20441;-55
2022/03/30 07:04:13;;;;;;;8.35;6.03;;;;;;;20.11;40.94;95587.84;10293950;28;20549;-57
2022/03/30 07:15:11;;;;;;;8.88;6.00;;;;;;;20.11;40.83;95575.13;10284578;28;20553;-56
2022/03/30 07:20:30;;;;;;;9.77;6.20;;;;;;;20.10;40.91;95578.94;10287561;28;20414;-54
2022/03/30 07:25:51;;;;;;;7.43;5.78;;;;;;;20.10;40.98;95572.78;10287390;28;20058;-55
2022/03/30 07:31:10;;;;;;;8.48;5.43;;;;;;;20.11;40.99;95574.31;10287168;28;20063;-57
2022/03/30 07:36:30;;;;;;;8.07;5.60;;;;;;;20.11;40.93;95577.03;10287523;28;20057;-57
2022/03/30 07:41:49;;;;;;;6.72;5.35;;;;;;;20.09;40.80;95572.00;10300168;28;20559;-57
2022/03/30 07:47:09;;;;;;;8.02;5.40;;;;;;;20.09;40.79;95571.19;10289199;28;20486;-57
2022/03/30 07:52:29;;;;;;;6.68;5.28;;;;;;;20.10;40.97;95570.84;10298733;28;20067;-57
2022/03/30 07:57:48;;;;;;;7.63;5.95;;;;;;;20.09;40.84;95572.00;10270390;28;20054;-56
2022/03/30 08:03:08;;;;;;;7.93;5.88;;;;;;;20.08;40.78;95570.41;10279178;28;20046;-55
2022/03/30 08:08:28;;;;;;;7.15;5.55;;;;;;;20.08;40.84;95570.41;10290093;28;20061;-56
2022/03/30 08:13:48;;;;;;;7.53;5.00;;;;;;;20.08;40.85;95572.34;10298018;28;20070;-54
2022/03/30 08:19:08;;;;;;;7.28;5.07;;;;;;;20.08;40.72;95565.00;10291750;28;20126;-57
2022/03/30 08:24:27;;;;;;;7.20;5.43;;;;;;;20.08;40.75;95569.63;10300960;28;20062;-56
2022/03/30 08:29:47;;;;;;;6.72;5.07;;;;;;;20.06;40.74;95555.69;10292734;28;20063;-56
2022/03/30 08:35:10;;;;;;;6.22;5.07;;;;;;;20.06;40.81;95555.69;10305569;28;20051;-56
2022/03/30 08:40:30;;;;;;;7.90;5.47;;;;;;;20.05;40.80;95554.94;10287741;28;20066;-53
2022/03/30 08:45:50;;;;;;;6.65;4.68;;;;;;;20.05;40.74;95554.94;10294466;28;20095;-57
2022/03/30 08:51:10;;;;;;;6.63;4.68;;;;;;;20.05;40.64;95548.72;10293718;28;20465;-56
2022/03/30 08:56:31;;;;;;;6.60;4.75;;;;;;;20.04;40.40;95541.75;10292777;28;20051;-54
2022/03/30 09:01:54;;;;;;;7.40;4.93;;;;;;;20.04;40.51;95539.06;10292623;28;20058;-56
2022/03/30 09:07:19;;;;;;;5.30;4.45;;;;;;;20.03;40.61;95534.78;10286932;28;20047;-57
2022/03/30 09:12:40;;;;;;;6.65;4.70;;;;;;;20.02;40.47;95530.53;10286190;28;20124;-54
2022/03/30 09:18:01;;;;;;;7.60;4.78;;;;;;;20.01;40.44;95527.00;10285309;28;20061;-53
2022/03/30 09:23:27;;;;;;;5.57;4.32;;;;;;;20.02;40.56;95517.78;10288424;28;20142;-56
2022/03/30 09:28:47;;;;;;;5.75;4.50;;;;;;;20.01;40.62;95507.31;10296392;28;20489;-56
2022/03/30 09:34:08;;;;;;;8.55;4.53;;;;;;;20.02;40.77;95511.59;10287444;28;20505;-57
2022/03/30 09:39:33;;;;;;;4.97;4.47;;;;;;;20.00;40.95;95503.06;10301905;28;20509;-56
2022/03/30 09:44:54;;;;;;;7.55;4.43;;;;;;;19.99;41.19;95501.50;10276703;28;20117;-54
2022/03/30 09:50:14;;;;;;;7.72;5.03;;;;;;;19.99;40.99;95486.03;10284990;28;20051;-55
2022/03/30 09:55:33;;;;;;;7.45;4.60;;;;;;;19.98;41.24;95483.72;10271320;28;20054;-56
2022/03/30 10:01:08;;;;;;;14.82;5.50;;;;;;;19.97;41.38;95482.91;10299854;28;20054;-55
2022/03/30 10:06:31;;;;;;;8.25;5.05;;;;;;;19.97;41.49;95465.94;10288043;28;20563;-57
2022/03/30 10:11:50;;;;;;;7.25;4.90;;;;;;;19.95;41.99;95458.16;10298308;28;20506;-56
2022/03/30 10:17:09;;;;;;;13.68;7.10;;;;;;;19.95;41.87;95453.56;10281225;28;20051;-54
2022/03/30 10:22:38;;;;;;;11.65;8.02;;;;;;;19.95;40.85;95441.97;10280641;28;20055;-56
2022/03/30 10:28:21;;;;;;;10.88;9.00;;;;;;;19.94;40.58;95440.41;10281667;28;20510;-56
2022/03/30 10:33:44;;;;;;;12.25;8.05;;;;;;;19.92;41.24;95429.94;10289692;28;20050;-57
2022/03/30 10:39:17;;;;;;;12.85;8.20;;;;;;;19.92;40.97;95431.88;10289870;28;20043;-57
2022/03/30 10:44:45;;;;;;;12.00;8.75;;;;;;;19.90;41.17;95421.41;10276636;28;20528;-57
2022/03/30 10:50:08;;;;;;;10.98;7.55;;;;;;;19.88;40.61;95415.59;10306543;28;20058;-57
2022/03/30 10:55:33;;;;;;;10.15;8.05;;;;;;;19.86;40.52;95409.78;10279850;28;20054;-55
2022/03/30 11:01:12;;;;;;;11.32;8.30;;;;;;;19.85;40.51;95399.31;10284466;28;20570;-54
2022/03/30 11:06:35;;;;;;;10.63;8.27;;;;;;;19.84;40.39;95392.38;10297571;28;20085;-56
2022/03/30 11:11:55;;;;;;;11.63;8.25;;;;;;;19.82;40.28;95392.72;10285274;28;20490;-57
2022/03/30 11:17:30;;;;;;;11.95;8.40;;;;;;;19.80;39.93;95389.59;10284626;28;20482;-57
2022/03/30 11:22:50;;;;;;;11.32;9.10;;;;;;;19.77;39.98;95374.09;10284548;28;20486;-57
2022/03/30 11:28:10;;;;;;;11.52;8.77;;;;;;;19.76;39.86;95375.25;10286013;28;20058;-55
2022/03/30 11:33:32;;;;;;;10.27;8.27;;;;;;;19.74;39.86;95366.72;10291598;28;20039;-56
2022/03/30 11:38:53;;;;;;;11.75;9.00;;;;;;;19.72;39.85;95358.97;10302987;28;20054;-56
2022/03/30 11:49:52;;;;;;;10.50;8.13;;;;;;;19.68;39.62;95347.28;10292044;28;20050;-56
2022/03/30 11:55:12;;;;;;;11.50;8.38;;;;;;;19.68;39.61;95347.28;10305065;28;20046;-55
2022/03/30 12:00:33;;;;;;;10.10;8.32;;;;;;;19.66;39.46;95346.88;10290248;28;20413;-56
2022/03/30 12:05:57;;;;;;;11.15;8.75;;;;;;;19.65;39.43;95348.00;10306447;28;20093;-56
2022/03/30 12:11:20;;;;;;;15.35;8.77;;;;;;;19.63;39.32;95338.69;10304057;28;20046;-56
2022/03/30 12:16:41;;;;;;;13.00;9.13;;;;;;;19.61;39.27;95330.16;10290732;28;20046;-57
2022/03/30 12:22:05;;;;;;;12.90;9.40;;;;;;;19.59;39.24;95322.41;10297126;28;20091;-57
2022/03/30 12:27:26;;;;;;;13.50;9.25;;;;;;;19.57;39.28;95316.59;10290638;28;21010;-57
2022/03/30 12:32:46;;;;;;;14.95;9.02;;;;;;;19.54;39.46;95310.00;10284068;28;20513;-57
2022/03/30 12:38:14;;;;;;;15.73;9.85;;;;;;;19.53;39.44;95302.25;10291533;28;20050;-57
2022/03/30 12:43:34;;;;;;;14.35;10.10;;;;;;;19.52;39.32;95297.97;10287388;28;20055;-57
2022/03/30 12:49:06;;;;;;;20.42;10.50;;;;;;;19.50;39.41;95287.56;10286684;28;20043;-56
2022/03/30 12:54:25;;;;;;;15.65;10.18;;;;;;;19.48;39.46;95276.34;10286969;28;20391;-55
2022/03/30 12:59:45;;;;;;;15.05;10.77;;;;;;;19.47;39.33;95268.59;10284928;28;20062;-57
2022/03/30 13:05:05;;;;;;;17.45;10.75;;;;;;;19.45;39.40;95258.13;10286504;28;20062;-57
2022/03/30 13:10:25;;;;;;;15.57;11.00;;;;;;;19.43;39.54;95246.91;10297817;28;20046;-57
2022/03/30 13:15:45;;;;;;;15.95;11.38;;;;;;;19.39;39.43;95234.50;10282935;28;20490;-57
2022/03/30 13:21:13;;;;;;;16.40;12.32;;;;;;;19.21;39.66;95223.38;10306142;28;20690;-57
2022/03/30 13:26:36;;;;;;;19.27;12.93;;;;;;;19.08;39.97;95214.69;10294539;28;20054;-56
2022/03/30 13:31:55;;;;;;;14.80;12.38;;;;;;;18.95;40.02;95204.06;10292642;28;20061;-56
2022/03/30 13:37:15;;;;;;;19.83;15.00;;;;;;;18.84;39.90;95188.84;10273435;28;20057;-58
2022/03/30 13:42:35;;;;;;;15.15;11.10;;;;;;;18.83;39.96;95184.56;10283031;28;20055;-57
2022/03/30 13:47:54;;;;;;;17.45;12.02;;;;;;;18.95;40.37;95187.88;10276264;28;20059;-57
2022/03/30 13:53:14;;;;;;;14.60;9.32;;;;;;;19.04;40.98;95178.78;10285441;28;20038;-57
2022/03/30 13:58:34;;;;;;;13.77;8.80;;;;;;;19.10;41.23;95171.94;10282173;28;20395;-58
2022/03/30 14:03:54;;;;;;;12.88;8.85;;;;;;;19.14;41.95;95161.97;10279292;28;21007;-59
2022/03/30 14:09:13;;;;;;;12.23;8.23;;;;;;;19.18;42.17;95146.59;10277894;28;20113;-58
2022/03/30 14:14:34;;;;;;;11.52;8.48;;;;;;;19.22;42.10;95135.88;10287619;28;20054;-56
2022/03/30 14:19:53;;;;;;;11.50;8.25;;;;;;;19.25;42.39;95135.13;10283395;28;20383;-56
2022/03/30 14:25:14;;;;;;;16.77;8.38;;;;;;;19.27;42.69;95125.53;10285555;28;20051;-56
2022/03/30 14:30:36;;;;;;;14.15;11.68;;;;;;;19.30;41.93;95124.03;10298768;28;20042;-51
2022/03/30 14:35:57;;;;;;;16.02;11.57;;;;;;;19.26;41.92;95115.88;10283245;28;20051;-50
2022/03/30 14:41:17;;;;;;;14.48;11.00;;;;;;;19.29;42.49;95117.09;10297125;28;20061;-56
2022/03/30 14:46:36;;;;;;;26.67;18.50;;;;;;;19.31;41.74;95112.09;10293878;28;20589;-60
2022/03/30 14:51:56;;;;;;;19.33;12.73;;;;;;;19.33;42.16;95105.19;10282192;28;20080;-52
2022/03/30 14:57:16;;;;;;;16.88;11.95;;;;;;;19.37;42.74;95118.75;10280093;28;20062;-56
2022/03/30 15:02:39;;;;;;;14.57;10.43;;;;;;;19.42;42.81;95104.16;10280517;28;20415;-51
2022/03/30 15:07:59;;;;;;;16.05;10.52;;;;;;;19.48;43.00;95114.28;10280227;28;20110;-50
2022/03/30 15:13:18;;;;;;;14.57;10.65;;;;;;;19.51;43.10;95097.34;10287122;28;20050;-52
2022/03/30 15:18:38;;;;;;;13.27;9.55;;;;;;;19.55;43.41;95092.75;10289440;28;20486;-50
2022/03/30 15:23:57;;;;;;;15.73;9.23;;;;;;;19.60;43.53;95088.19;10288036;28;20417;-58
2022/03/30 15:29:17;;;;;;;11.90;9.25;;;;;;;19.64;43.45;95097.91;10281337;28;20461;-59
2022/03/30 15:34:37;;;;;;;10.88;8.45;;;;;;;19.70;43.40;95087.56;10294937;28;20134;-58
2022/03/30 15:39:56;;;;;;;10.70;8.57;;;;;;;19.74;43.67;95085.72;10295780;28;20051;-58
2022/03/30 15:45:17;;;;;;;13.13;8.63;;;;;;;19.78;43.57;95080.34;10292998;28;20073;-60
2022/03/30 15:50:38;;;;;;;12.48;8.80;;;;;;;19.82;43.57;95075.78;10289398;28;20051;-59
2022/03/30 15:55:57;;;;;;;11.93;9.57;;;;;;;19.86;43.88;95069.25;10279035;28;20055;-56
2022/03/30 16:01:17;;;;;;;15.63;10.38;;;;;;;19.90;44.29;95061.97;10272684;28;20119;-58
2022/03/30 16:06:37;;;;;;;16.35;10.50;;;;;;;19.94;45.01;95054.69;10288437;28;20457;-60
2022/03/30 16:17:35;;;;;;;16.60;10.40;;;;;;;20.06;45.35;95063.69;10288981;28;20090;-55
2022/03/30 16:22:54;;;;;;;21.88;12.48;;;;;;;20.10;45.56;95064.50;10287822;28;20790;-60
2022/03/30 16:28:13;;;;;;;22.63;14.07;;;;;;;20.15;45.88;95067.66;10289227;28;20106;-57
2022/03/30 16:33:33;;;;;;;21.35;13.27;;;;;;;20.20;46.41;95063.84;10292056;28;20058;-52
2022/03/30 16:38:53;;;;;;;29.25;13.43;;;;;;;20.24;46.42;95059.25;10287551;28;20055;-59
2022/03/30 16:44:14;;;;;;;32.97;17.73;;;;;;;20.28;46.72;95064.69;10289455;28;20062;-57
2022/03/30 16:49:34;;;;;;;50.60;22.17;;;;;;;20.33;47.31;95064.38;10287066;28;20066;-57
2022/03/30 16:54:53;;;;;;;64.13;25.75;;;;;;;20.35;47.90;95059.38;10288290;28;20069;-55
2022/03/30 17:00:13;;;;;;;61.45;25.55;;;;;;;20.39;48.00;95072.94;10303806;28;20478;-58
2022/03/30 17:05:33;;;;;;;70.70;28.50;;;;;;;20.41;48.65;95067.94;10291717;28;20051;-57
2022/03/30 17:10:53;;;;;;;61.60;25.00;;;;;;;20.44;48.76;95075.28;10287068;28;20065;-58
2022/03/30 17:16:12;;;;;;;54.13;21.98;;;;;;;20.47;48.22;95071.84;10288926;28;20050;-57
2022/03/30 17:21:32;;;;;;;45.65;20.27;;;;;;;20.46;47.97;95076.47;10282850;28;20156;-55
2022/03/30 17:26:52;;;;;;;44.05;19.20;;;;;;;20.47;47.49;95078.03;10290837;28;20121;-57
2022/03/30 17:32:11;;;;;;;39.28;17.60;;;;;;;20.48;47.09;95076.09;10284890;28;20058;-57
2022/03/30 17:37:30;;;;;;;34.47;16.70;;;;;;;20.47;46.75;95075.31;10286586;28;20054;-56
2022/03/30 17:42:52;;;;;;;34.20;17.13;;;;;;;20.49;46.63;95074.97;10286677;28;20050;-55
2022/03/30 17:53:50;;;;;;;28.00;14.10;;;;;;;20.49;46.25;95080.38;10282951;28;20125;-56
2022/03/30 17:59:10;;;;;;;29.63;13.93;;;;;;;20.49;45.88;95091.97;10285379;28;20855;-57
2022/03/30 18:04:29;;;;;;;27.88;13.45;;;;;;;20.49;45.73;95094.66;10297941;28;20058;-57
2022/03/30 18:09:49;;;;;;;26.00;12.68;;;;;;;20.50;45.58;95098.16;10286829;28;20046;-57
2022/03/30 18:15:09;;;;;;;29.65;12.82;;;;;;;20.50;45.36;95101.66;10287710;28;20058;-51
2022/03/30 18:20:29;;;;;;;25.75;12.93;;;;;;;20.51;45.40;95105.13;10284355;28;20533;-53
2022/03/30 18:25:48;;;;;;;24.48;12.85;;;;;;;20.51;45.30;95118.66;10283866;28;20055;-51
2022/03/30 18:31:08;;;;;;;24.65;12.07;;;;;;;20.51;45.37;95108.59;10281097;28;20146;-51
2022/03/30 18:36:29;;;;;;;24.50;12.27;;;;;;;20.52;45.28;95118.28;10272442;28;20063;-52
2022/03/30 18:41:49;;;;;;;24.48;11.88;;;;;;;20.52;45.22;95128.31;10286787;28;20046;-53
2022/03/30 18:47:09;;;;;;;21.65;10.80;;;;;;;20.52;44.41;95139.94;10274798;28;20042;-53
2022/03/30 18:52:28;;;;;;;22.23;10.82;;;;;;;20.52;44.97;95133.72;10296088;28;20038;-54
2022/03/30 18:57:48;;;;;;;20.83;10.73;;;;;;;20.51;44.67;95137.59;10286692;28;20065;-53
2022/03/30 19:03:19;;;;;;;19.20;10.75;;;;;;;20.51;44.77;95137.59;10268677;28;20055;-53
2022/03/30 19:08:41;;;;;;;17.55;9.98;;;;;;;20.52;44.77;95139.13;10288990;28;20050;-56
2022/03/30 19:14:01;;;;;;;18.25;10.20;;;;;;;20.52;44.59;95144.53;10283435;28;20109;-54
2022/03/30 19:19:20;;;;;;;18.48;9.60;;;;;;;20.51;44.65;95151.13;10285542;28;20058;-53
2022/03/30 19:24:40;;;;;;;16.35;9.13;;;;;;;20.51;44.65;95156.53;10284808;28;20422;-56
2022/03/30 19:29:59;;;;;;;21.48;9.23;;;;;;;20.50;44.87;95158.47;10301887;28;20049;-54
2022/03/30 19:35:19;;;;;;;15.80;9.40;;;;;;;20.50;44.69;95152.25;10284965;28;20059;-57
2022/03/30 19:40:41;;;;;;;14.75;8.82;;;;;;;20.49;44.82;95158.81;10286376;28;20055;-57
2022/03/30 19:46:00;;;;;;;14.98;8.23;;;;;;;20.49;44.82;95158.81;10263053;28;20438;-58
2022/03/30 19:51:20;;;;;;;15.25;8.88;;;;;;;20.48;44.64;95154.53;10299307;28;20050;-55
2022/03/30 19:56:40;;;;;;;15.45;8.52;;;;;;;20.48;44.75;95158.06;10297561;28;20490;-57
2022/03/30 20:02:03;;;;;;;14.82;8.68;;;;;;;20.47;44.73;95158.41;10292314;28;20055;-54
2022/03/30 20:07:22;;;;;;;13.13;7.95;;;;;;;20.45;44.62;95156.06;10305060;28;20414;-57
2022/03/30 20:12:41;;;;;;;15.40;8.27;;;;;;;20.45;44.74;95156.06;10295445;28;20054;-56
2022/03/30 20:18:01;;;;;;;12.98;8.15;;;;;;;20.45;44.72;95163.41;10289500;28;20046;-55
2022/03/30 20:23:20;;;;;;;13.40;8.40;;;;;;;20.43;44.73;95163.78;10279660;28;20043;-57
2022/03/30 20:28:42;;;;;;;14.77;7.70;;;;;;;20.44;44.65;95161.84;10297976;28;20055;-57
2022/03/30 20:34:02;;;;;;;12.68;7.55;;;;;;;20.43;44.27;95155.66;10289198;28;20081;-57
2022/03/30 20:39:21;;;;;;;12.07;7.20;;;;;;;20.43;44.41;95157.59;10305506;28;20046;-58
2022/03/30 20:44:41;;;;;;;12.18;7.35;;;;;;;20.42;44.35;95154.09;10286262;28;20545;-57
2022/03/30 20:50:01;;;;;;;11.48;7.28;;;;;;;20.42;44.23;95158.72;10303283;28;20185;-58
2022/03/30 20:55:21;;;;;;;12.48;7.05;;;;;;;20.40;44.18;95152.91;10306963;28;20043;-58
2022/03/30 21:00:41;;;;;;;11.63;7.00;;;;;;;20.39;44.14;95160.25;10300913;28;20055;-58
2022/03/30 21:06:01;;;;;;;11.23;6.90;;;;;;;20.38;43.99;95166.81;10309482;28;20580;-58
2022/03/30 21:11:21;;;;;;;10.07;6.68;;;;;;;20.37;44.10;95159.84;10299757;28;20038;-59
2022/03/30 21:16:41;;;;;;;14.05;6.55;;;;;;;20.37;44.03;95156.38;10281685;28;20105;-58
2022/03/30 21:22:01;;;;;;;10.52;6.72;;;;;;;20.34;43.91;95155.94;10281205;28;20061;-58
2022/03/30 21:27:21;;;;;;;11.23;6.93;;;;;;;20.34;43.99;95158.63;10279639;28;20102;-58
2022/03/30 21:32:40;;;;;;;9.48;6.35;;;;;;;20.34;43.80;95165.97;10280612;28;20055;-57
2022/03/30 21:38:01;;;;;;;12.80;6.75;;;;;;;20.31;43.88;95162.09;10289884;28;20506;-57
2022/03/30 21:43:20;;;;;;;11.23;6.57;;;;;;;20.31;43.91;95158.63;10286760;28;20489;-58
2022/03/30 21:48:40;;;;;;;11.20;6.43;;;;;;;20.30;43.75;95159.75;10299966;28;20051;-59
2022/03/30 21:53:59;;;;;;;10.02;6.18;;;;;;;20.30;43.76;95159.75;10292748;28;20597;-58
2022/03/30 21:59:18;;;;;;;11.07;6.53;;;;;;;20.28;43.66;95168.22;10289037;28;20107;-58
2022/03/30 22:04:38;;;;;;;9.40;6.28;;;;;;;20.26;43.71;95158.94;10299600;28;20047;-57
2022/03/30 22:09:58;;;;;;;10.90;6.15;;;;;;;20.25;43.54;95171.69;10282409;28;20051;-57
2022/03/30 22:15:17;;;;;;;7.85;5.55;;;;;;;20.24;43.62;95164.72;10286580;28;20055;-58
2022/03/30 22:20:38;;;;;;;8.48;5.70;;;;;;;20.24;43.67;95155.81;10287116;28;20055;-58
2022/03/30 22:25:57;;;;;;;9.57;5.65;;;;;;;20.22;43.49;95164.28;10320438;28;20054;-58
2022/03/30 22:36:54;;;;;;;7.60;5.07;;;;;;;20.20;43.43;95155.78;10280331;28;20047;-58
2022/03/30 22:42:14;;;;;;;8.10;5.50;;;;;;;20.20;43.48;95163.13;10269729;28;20104;-57
2022/03/30 22:47:34;;;;;;;7.45;5.15;;;;;;;20.19;43.33;95153.44;10283571;28;20533;-58
2022/03/30 22:52:53;;;;;;;9.35;5.95;;;;;;;20.17;43.39;95139.50;10300384;28;20069;-58
2022/03/30 22:58:13;;;;;;;8.02;5.40;;;;;;;20.17;43.42;95144.91;10300265;28;20039;-58
2022/03/30 23:03:32;;;;;;;8.27;5.05;;;;;;;20.14;43.31;95143.72;10298544;28;20491;-58
2022/03/30 23:08:52;;;;;;;7.72;4.70;;;;;;;20.13;43.30;95142.16;10296824;28;20046;-58
2022/03/30 23:14:12;;;;;;;7.22;4.75;;;;;;;20.12;43.32;95148.72;10283357;28;20050;-58
2022/03/30 23:19:31;;;;;;;8.68;5.07;;;;;;;20.11;43.31;95147.16;10299331;28;20046;-58
2022/03/30 23:24:51;;;;;;;7.60;5.05;;;;;;;20.10;43.32;95140.22;10286646;28;20426;-57
2022/03/30 23:30:11;;;;;;;6.65;4.82;;;;;;;20.09;43.19;95144.03;10302898;28;20042;-57
2022/03/30 23:35:31;;;;;;;7.10;4.80;;;;;;;20.07;43.24;95135.53;10293971;28;20140;-58
2022/03/30 23:40:52;;;;;;;5.63;4.35;;;;;;;20.06;43.32;95142.09;10293671;28;20090;-58
2022/03/30 23:46:11;;;;;;;7.35;4.68;;;;;;;20.05;43.25;95138.63;10292082;28;20046;-58
2022/03/30 23:51:32;;;;;;;7.50;4.68;;;;;;;20.04;43.09;95147.09;10290735;28;20055;-58
2022/03/30 23:56:52;;;;;;;6.15;4.05;;;;;;;20.03;43.18;95142.81;10291777;28;20055;-58
